| time (UTC) | temp F | wind direction | speed knots | gust knots | rain 1hr in | rain 24hr in | rain mn in | humidity % | barometer mb |
| 20260510164545 | 76 | 248 | 4.3 | 4.3 | 0.00 | 0.00 | 0.00 | 38 | 1006.7 |
| 20260510163944 | 76 | 248 | 3.5 | 4.3 | 0.00 | 0.00 | 0.00 | 39 | 1006.7 |
| 20260510162724 | 76 | 68 | 0.0 | 0.0 | 0.00 | 0.00 | 0.00 | 39 | 1006.7 |
| 20260510161529 | 77 | 248 | 1.7 | 1.7 | 0.00 | 0.00 | 0.00 | 40 | 1006.7 |
| 20260510160950 | 76 | 112 | 1.7 | 1.7 | 0.00 | 0.00 | 0.00 | 40 | 1006.7 |
| 20260510155736 | 77 | 270 | 2.6 | 2.6 | 0.00 | 0.00 | 0.00 | 40 | 1006.7 |
| 20260510155150 | 77 | 90 | 0.0 | 0.0 | 0.00 | 0.00 | 0.00 | 42 | 1006.7 |
| 20260510154523 | 76 | 158 | 0.0 | 0.0 | 0.00 | 0.00 | 0.00 | 42 | 1006.7 |
| 20260510153949 | 76 | 68 | 0.0 | 0.0 | 0.00 | 0.00 | 0.00 | 42 | 1006.7 |
| 20260510153322 | 75 | 202 | 1.7 | 1.7 | 0.00 | 0.00 | 0.00 | 45 | 1006.7 |
| 20260510152733 | 74 | 202 | 0.0 | 0.0 | 0.00 | 0.00 | 0.00 | 45 | 1006.7 |
| 20260510152149 | 74 | 292 | 3.5 | 3.5 | 0.00 | 0.00 | 0.00 | 48 | 1006.7 |
| 20260510151535 | 74 | 180 | 2.6 | 2.6 | 0.00 | 0.00 | 0.00 | 46 | 1006.7 |
| 20260510150914 | 73 | 225 | 0.9 | 0.9 | 0.00 | 0.00 | 0.00 | 47 | 1006.7 |
| 20260510150339 | 72 | 112 | 0.0 | 0.0 | 0.00 | 0.00 | 0.00 | 49 | 1006.7 |
| 20260510145717 | 73 | 225 | 1.7 | 1.7 | 0.00 | 0.00 | 0.00 | 50 | 1006.7 |
| 20260510145138 | 74 | 68 | 0.0 | 0.0 | 0.00 | 0.00 | 0.00 | 49 | 1006.7 |
| 20260510144510 | 75 | 338 | 0.0 | 0.0 | 0.00 | 0.00 | 0.00 | 51 | 1006.7 |
| 20260510143926 | 74 | 338 | 0.0 | 0.0 | 0.00 | 0.00 | 0.00 | 45 | 1006.7 |
| 20260510143335 | 70 | 292 | 0.0 | 0.0 | 0.00 | 0.00 | 0.00 | 47 | 1006.7 |
| 20260510142713 | 65 | 292 | 0.0 | 0.0 | 0.00 | 0.00 | 0.00 | 64 | 1006.7 |
| 20260510142128 | 64 | 292 | 0.0 | 0.0 | 0.00 | 0.00 | 0.00 | 66 | 1006.7 |
| 20260510140929 | 66 | 292 | 0.0 | 0.0 | 0.00 | 0.00 | 0.00 | 67 | 1006.7 |
| 20260510135715 | 66 | 338 | 0.0 | 0.0 | 0.00 | 0.00 | 0.00 | 62 | 1006.7 |
| 20260510135116 | 65 | 338 | 0.0 | 0.0 | 0.00 | 0.00 | 0.00 | 63 | 1006.7 |
| 20260510134511 | 62 | 338 | 0.0 | 0.0 | 0.00 | 0.00 | 0.00 | 63 | 1006.7 |
| 20260510133348 | 56 | 292 | 0.0 | 0.0 | 0.00 | 0.00 | 0.00 | 77 | 1006.7 |
| 20260510132749 | 55 | 292 | 0.0 | 0.0 | 0.00 | 0.00 | 0.00 | 79 | 1006.7 |
| 20260510131517 | 55 | 292 | 0.0 | 0.0 | 0.00 | 0.00 | 0.00 | 78 | 1007.7 |
| 20260510130920 | 55 | 292 | 0.0 | 0.0 | 0.00 | 0.00 | 0.00 | 78 | 1007.7 |
| 20260510130331 | 57 | 315 | 0.0 | 0.0 | 0.00 | 0.00 | 0.00 | 79 | 1007.7 |
| 20260510125751 | 60 | 315 | 0.0 | 0.0 | 0.00 | 0.00 | 0.00 | 70 | 1007.7 |
| 20260510125144 | 58 | 338 | 0.0 | 0.0 | 0.00 | 0.00 | 0.00 | 64 | 1007.7 |
| 20260510123308 | 49 | 338 | 0.0 | 0.0 | 0.00 | 0.00 | 0.00 | 89 | 1007.7 |
| 20260510122729 | 49 | 338 | 0.0 | 0.0 | 0.00 | 0.00 | 0.00 | 90 | 1007.7 |
| 20260510122133 | 48 | 338 | 0.0 | 0.0 | 0.00 | 0.00 | 0.00 | 90 | 1007.7 |
| 20260510121511 | 48 | 338 | 0.0 | 0.0 | 0.00 | 0.00 | 0.00 | 91 | 1007.7 |
| 20260510120949 | 48 | 270 | 0.0 | 0.0 | 0.00 | 0.00 | 0.00 | 92 | 1007.7 |
| 20260510115743 | 47 | 270 | 0.0 | 0.0 | 0.00 | 0.00 | 0.00 | 92 | 1006.7 |
| 20260510114518 | 47 | 270 | 0.0 | 0.0 | 0.00 | 0.00 | 0.00 | 93 | 1006.7 |
| 20260510113914 | 47 | 270 | 0.0 | 0.0 | 0.00 | 0.00 | 0.00 | 92 | 1006.7 |
| 20260510112710 | 47 | 270 | 0.0 | 0.0 | 0.00 | 0.00 | 0.00 | 92 | 1006.7 |
| 20260510112131 | 47 | 270 | 0.0 | 0.0 | 0.00 | 0.00 | 0.00 | 92 | 1006.7 |
| 20260510111532 | 47 | 270 | 0.9 | 0.9 | 0.00 | 0.00 | 0.00 | 92 | 1006.7 |
| 20260510110933 | 47 | 270 | 0.0 | 0.0 | 0.00 | 0.00 | 0.00 | 92 | 1006.7 |
| 20260510110312 | 47 | 270 | 0.0 | 0.0 | 0.00 | 0.00 | 0.00 | 92 | 1006.7 |
| 20260510105747 | 47 | 270 | 0.0 | 0.0 | 0.00 | 0.00 | 0.00 | 93 | 1006.7 |
| 20260510105143 | 47 | 292 | 0.0 | 0.0 | 0.00 | 0.00 | 0.00 | 93 | 1006.7 |
| 20260510103934 | 47 | 292 | 0.0 | 0.0 | 0.00 | 0.00 | 0.00 | 93 | 1006.7 |
| 20260510103324 | 47 | 270 | 0.0 | 0.0 | 0.00 | 0.00 | 0.00 | 93 | 1006.7 |
| 20260510102717 | 47 | 270 | 0.0 | 0.0 | 0.00 | 0.00 | 0.00 | 93 | 1006.0 |
| 20260510102142 | 47 | 270 | 0.0 | 0.0 | 0.00 | 0.00 | 0.00 | 93 | 1006.0 |
| 20260510101510 | 47 | 270 | 0.0 | 0.0 | 0.00 | 0.00 | 0.00 | 93 | 1006.0 |
| 20260510100351 | 47 | 270 | 0.0 | 0.0 | 0.00 | 0.00 | 0.00 | 93 | 1006.0 |
| 20260510095710 | 47 | 270 | 0.0 | 0.0 | 0.00 | 0.00 | 0.00 | 92 | 1006.0 |
| 20260510095139 | 47 | 270 | 0.0 | 0.0 | 0.00 | 0.00 | 0.00 | 92 | 1006.0 |
| 20260510094539 | 48 | 270 | 0.0 | 0.0 | 0.00 | 0.00 | 0.00 | 92 | 1006.0 |
| 20260510093908 | 48 | 292 | 0.0 | 0.0 | 0.00 | 0.00 | 0.00 | 92 | 1006.0 |
| 20260510093327 | 48 | 292 | 0.0 | 0.0 | 0.00 | 0.00 | 0.00 | 92 | 1006.0 |
| 20260510092725 | 48 | 292 | 0.0 | 0.0 | 0.00 | 0.00 | 0.00 | 93 | 1006.0 |
| 20260510092129 | 48 | 292 | 0.0 | 0.0 | 0.00 | 0.00 | 0.00 | 92 | 1006.0 |
| 20260510091537 | 48 | 292 | 0.0 | 0.0 | 0.00 | 0.00 | 0.00 | 92 | 1006.0 |
| 20260510090909 | 48 | 292 | 0.0 | 0.0 | 0.00 | 0.00 | 0.00 | 92 | 1006.0 |
| 20260510090341 | 48 | 292 | 0.0 | 0.0 | 0.00 | 0.00 | 0.00 | 93 | 1006.0 |
| 20260510085716 | 48 | 292 | 0.0 | 0.0 | 0.00 | 0.00 | 0.00 | 93 | 1005.0 |
| 20260510083948 | 48 | 292 | 0.0 | 0.0 | 0.00 | 0.00 | 0.00 | 93 | 1005.0 |
| 20260510083352 | 48 | 292 | 0.0 | 0.0 | 0.00 | 0.00 | 0.00 | 93 | 1005.0 |
| 20260510082744 | 49 | 292 | 0.0 | 0.0 | 0.00 | 0.00 | 0.00 | 93 | 1005.0 |
| 20260510082119 | 49 | 292 | 0.0 | 0.0 | 0.00 | 0.00 | 0.00 | 93 | 1005.0 |
| 20260510081549 | 48 | 292 | 0.0 | 0.0 | 0.00 | 0.00 | 0.00 | 93 | 1005.0 |
| 20260510080918 | 48 | 292 | 0.0 | 0.0 | 0.00 | 0.00 | 0.00 | 93 | 1005.0 |
| 20260510080327 | 49 | 292 | 0.0 | 0.0 | 0.00 | 0.00 | 0.00 | 93 | 1005.0 |
| 20260510075750 | 48 | 292 | 0.0 | 0.0 | 0.00 | 0.00 | 0.00 | 93 | 1005.0 |
| 20260510074542 | 49 | 292 | 0.0 | 0.0 | 0.00 | 0.00 | 0.00 | 93 | 1005.0 |
| 20260510073942 | 49 | 292 | 0.0 | 0.0 | 0.00 | 0.00 | 0.00 | 93 | 1005.0 |
| 20260510073347 | 49 | 292 | 0.0 | 0.0 | 0.00 | 0.00 | 0.00 | 93 | 1005.0 |
| 20260510072734 | 48 | 292 | 0.0 | 0.0 | 0.00 | 0.00 | 0.00 | 93 | 1005.0 |
| 20260510072126 | 48 | 292 | 0.0 | 0.0 | 0.00 | 0.00 | 0.00 | 93 | 1005.0 |
| 20260510071546 | 48 | 292 | 0.0 | 0.0 | 0.00 | 0.00 | 0.00 | 93 | 1005.0 |
| 20260510070925 | 48 | 292 | 0.0 | 0.0 | 0.00 | 0.00 | 0.00 | 93 | 1005.0 |
| 20260510070312 | 48 | 292 | 0.0 | 0.0 | 0.00 | 0.00 | 0.00 | 93 | 1005.0 |
| 20260510065733 | 48 | 292 | 0.0 | 0.0 | 0.00 | 0.00 | 0.00 | 93 | 1005.0 |
| 20260510065141 | 48 | 292 | 0.0 | 0.0 | 0.00 | 0.00 | 0.00 | 93 | 1005.0 |
| 20260510063922 | 48 | 292 | 0.0 | 0.0 | 0.00 | 0.00 | 0.00 | 93 | 1005.0 |
| 20260510063330 | 48 | 292 | 0.0 | 0.0 | 0.00 | 0.00 | 0.00 | 93 | 1005.0 |
| 20260510062709 | 48 | 292 | 0.0 | 0.0 | 0.00 | 0.00 | 0.00 | 93 | 1005.0 |
| 20260510062146 | 48 | 292 | 0.0 | 0.0 | 0.00 | 0.00 | 0.00 | 93 | 1005.0 |
| 20260510061534 | 48 | 292 | 0.0 | 0.0 | 0.00 | 0.00 | 0.00 | 93 | 1005.0 |
| 20260510060949 | 48 | 292 | 0.0 | 0.0 | 0.00 | 0.00 | 0.00 | 93 | 1005.0 |
| 20260510060341 | 48 | 292 | 0.0 | 0.0 | 0.00 | 0.00 | 0.00 | 93 | 1005.0 |
| 20260510055725 | 48 | 292 | 0.0 | 0.0 | 0.00 | 0.00 | 0.00 | 93 | 1005.0 |
| 20260510055118 | 48 | 292 | 0.0 | 0.0 | 0.00 | 0.00 | 0.00 | 93 | 1005.0 |
| 20260510054538 | 48 | 292 | 0.0 | 0.0 | 0.00 | 0.00 | 0.00 | 93 | 1005.0 |
| 20260510053314 | 49 | 292 | 0.0 | 0.0 | 0.00 | 0.00 | 0.00 | 93 | 1005.0 |
| 20260510052149 | 49 | 292 | 0.0 | 0.0 | 0.00 | 0.00 | 0.00 | 93 | 1005.0 |
| 20260510051548 | 49 | 292 | 0.0 | 0.0 | 0.00 | 0.00 | 0.00 | 93 | 1005.0 |
| 20260510050912 | 49 | 292 | 0.0 | 0.0 | 0.00 | 0.00 | 0.00 | 93 | 1005.0 |
| 20260510050332 | 49 | 292 | 0.0 | 0.0 | 0.00 | 0.00 | 0.00 | 93 | 1005.0 |
| 20260510045721 | 50 | 292 | 0.0 | 0.0 | 0.00 | 0.00 | 0.00 | 93 | 1005.0 |
| 20260510045110 | 50 | 292 | 0.0 | 0.0 | 0.00 | 0.00 | 0.00 | 93 | 1005.0 |
| 20260510043931 | 50 | 292 | 0.0 | 0.0 | 0.00 | 0.00 | 0.00 | 93 | 1005.0 |
| 20260510043338 | 50 | 292 | 0.0 | 0.0 | 0.00 | 0.00 | 0.00 | 92 | 1005.0 |
| 20260510042711 | 50 | 292 | 0.0 | 0.0 | 0.00 | 0.00 | 0.00 | 92 | 1005.0 |
| 20260510042145 | 50 | 292 | 0.0 | 0.0 | 0.00 | 0.00 | 0.00 | 92 | 1005.0 |
| 20260510041533 | 50 | 292 | 0.0 | 0.0 | 0.00 | 0.00 | 0.00 | 92 | 1005.0 |
| 20260510040924 | 51 | 292 | 0.0 | 0.0 | 0.00 | 0.00 | 0.00 | 92 | 1005.0 |
| 20260510040343 | 51 | 292 | 0.0 | 0.0 | 0.00 | 0.00 | 0.00 | 92 | 1005.0 |
| 20260510035747 | 51 | 292 | 0.0 | 0.0 | 0.00 | 0.00 | 0.00 | 92 | 1005.0 |
| 20260510035123 | 51 | 292 | 0.0 | 0.0 | 0.00 | 0.00 | 0.00 | 92 | 1005.0 |
| 20260510034541 | 51 | 292 | 0.0 | 0.0 | 0.00 | 0.00 | 0.00 | 92 | 1004.0 |
| 20260510033909 | 52 | 292 | 0.0 | 0.0 | 0.00 | 0.00 | 0.00 | 92 | 1004.0 |
| 20260510033316 | 52 | 292 | 0.0 | 0.0 | 0.00 | 0.00 | 0.00 | 91 | 1004.0 |
| 20260510032752 | 52 | 292 | 0.0 | 0.0 | 0.00 | 0.00 | 0.00 | 91 | 1005.0 |
| 20260510032147 | 52 | 292 | 0.0 | 0.0 | 0.00 | 0.00 | 0.00 | 91 | 1005.0 |
| 20260510031524 | 52 | 292 | 0.0 | 0.0 | 0.00 | 0.00 | 0.00 | 91 | 1004.0 |
| 20260510030918 | 52 | 292 | 0.0 | 0.0 | 0.00 | 0.00 | 0.00 | 90 | 1004.0 |
| 20260510030328 | 52 | 292 | 0.0 | 0.0 | 0.00 | 0.00 | 0.00 | 90 | 1004.0 |
| 20260510025732 | 53 | 292 | 0.0 | 0.0 | 0.00 | 0.00 | 0.00 | 90 | 1004.0 |
| 20260510025122 | 53 | 292 | 0.0 | 0.0 | 0.00 | 0.00 | 0.00 | 90 | 1004.0 |
| 20260510023940 | 53 | 292 | 0.0 | 0.0 | 0.00 | 0.00 | 0.00 | 89 | 1004.0 |
| 20260510022739 | 54 | 292 | 0.0 | 0.0 | 0.00 | 0.00 | 0.00 | 88 | 1004.0 |
| 20260510021510 | 54 | 292 | 0.0 | 0.0 | 0.00 | 0.00 | 0.00 | 88 | 1004.0 |
| 20260510020952 | 54 | 292 | 0.0 | 0.0 | 0.00 | 0.00 | 0.00 | 87 | 1004.0 |
| 20260510015740 | 54 | 292 | 0.0 | 0.0 | 0.00 | 0.00 | 0.00 | 87 | 1004.0 |
| 20260510015143 | 55 | 292 | 0.0 | 0.0 | 0.00 | 0.00 | 0.00 | 86 | 1004.0 |
| 20260510014511 | 55 | 292 | 0.0 | 0.0 | 0.00 | 0.00 | 0.00 | 85 | 1003.0 |
| 20260510013946 | 55 | 292 | 0.0 | 0.0 | 0.00 | 0.00 | 0.00 | 84 | 1003.0 |
| 20260510012725 | 56 | 292 | 0.0 | 0.0 | 0.00 | 0.00 | 0.00 | 82 | 1003.0 |
| 20260510012131 | 56 | 292 | 0.0 | 0.0 | 0.00 | 0.00 | 0.00 | 82 | 1003.0 |
| 20260510011556 | 56 | 292 | 0.0 | 0.0 | 0.00 | 0.00 | 0.00 | 82 | 1003.0 |
| 20260510010951 | 56 | 292 | 0.0 | 0.0 | 0.00 | 0.00 | 0.00 | 81 | 1003.0 |
| 20260510010348 | 57 | 292 | 0.0 | 0.0 | 0.00 | 0.00 | 0.00 | 80 | 1003.0 |
| 20260510005143 | 58 | 292 | 0.0 | 0.0 | 0.00 | 0.00 | 0.00 | 77 | 1003.0 |
| 20260510004550 | 58 | 292 | 0.0 | 0.0 | 0.00 | 0.00 | 0.00 | 79 | 1002.0 |
| 20260510003307 | 59 | 292 | 0.0 | 0.0 | 0.00 | 0.00 | 0.00 | 76 | 1002.0 |
| 20260510002716 | 60 | 292 | 0.0 | 0.0 | 0.00 | 0.00 | 0.00 | 76 | 1002.0 |
| 20260510001511 | 61 | 292 | 0.0 | 0.0 | 0.00 | 0.00 | 0.00 | 70 | 1002.0 |
| 20260510000943 | 61 | 292 | 0.0 | 0.0 | 0.00 | 0.00 | 0.00 | 71 | 1002.0 |
| 20260510000349 | 62 | 292 | 0.0 | 0.0 | 0.00 | 0.00 | 0.00 | 69 | 1002.0 |
| 20260509235710 | 62 | 292 | 0.0 | 0.0 | 0.00 | 0.00 | 0.00 | 67 | 1002.0 |
| 20260509235126 | 63 | 292 | 0.0 | 0.0 | 0.00 | 0.00 | 0.00 | 66 | 1002.0 |
| 20260509234543 | 63 | 292 | 0.0 | 0.0 | 0.00 | 0.00 | 0.00 | 65 | 1002.0 |
| 20260509233949 | 63 | 292 | 0.0 | 0.0 | 0.00 | 0.00 | 0.00 | 64 | 1002.0 |
| 20260509233339 | 64 | 292 | 0.0 | 0.0 | 0.00 | 0.00 | 0.00 | 65 | 1002.0 |
| 20260509232130 | 64 | 292 | 0.0 | 0.0 | 0.00 | 0.00 | 0.00 | 61 | 1002.0 |
| 20260509231509 | 64 | 270 | 0.0 | 0.0 | 0.00 | 0.00 | 0.00 | 60 | 1001.0 |
| 20260509230951 | 65 | 270 | 0.0 | 0.0 | 0.00 | 0.00 | 0.00 | 62 | 1001.0 |
| 20260509230332 | 66 | 270 | 0.0 | 0.0 | 0.00 | 0.00 | 0.00 | 59 | 1001.0 |
| 20260509225146 | 68 | 270 | 0.0 | 0.0 | 0.00 | 0.00 | 0.00 | 57 | 1002.0 |
| 20260509224535 | 70 | 270 | 0.0 | 0.0 | 0.00 | 0.00 | 0.00 | 53 | 1001.0 |
| 20260509223928 | 72 | 270 | 0.9 | 0.9 | 0.00 | 0.00 | 0.00 | 49 | 1001.0 |
| 20260509223343 | 73 | 248 | 0.9 | 0.9 | 0.00 | 0.00 | 0.00 | 45 | 1001.0 |
| 20260509222130 | 73 | 248 | 1.7 | 1.7 | 0.00 | 0.00 | 0.00 | 38 | 1002.0 |
| 20260509220917 | 71 | 112 | 1.7 | 1.7 | 0.00 | 0.00 | 0.00 | 43 | 1002.0 |
| 20260509220325 | 71 | 202 | 1.7 | 1.7 | 0.00 | 0.00 | 0.00 | 44 | 1002.0 |
| 20260509215723 | 71 | 225 | 0.0 | 0.0 | 0.00 | 0.00 | 0.00 | 44 | 1002.0 |
| 20260509215134 | 71 | 68 | 1.7 | 1.7 | 0.00 | 0.00 | 0.00 | 45 | 1002.0 |
| 20260509214520 | 72 | 112 | 0.9 | 0.9 | 0.00 | 0.00 | 0.00 | 44 | 1002.0 |
| 20260509213334 | 72 | 270 | 1.7 | 1.7 | 0.00 | 0.00 | 0.00 | 43 | 1002.0 |
| 20260509212738 | 71 | 112 | 0.9 | 0.9 | 0.00 | 0.00 | 0.00 | 43 | 1002.0 |
| 20260509212145 | 71 | 248 | 1.7 | 1.7 | 0.00 | 0.00 | 0.00 | 43 | 1002.0 |
| 20260509211542 | 71 | 270 | 0.9 | 0.9 | 0.00 | 0.00 | 0.00 | 45 | 1001.0 |
| 20260509210931 | 71 | 248 | 1.7 | 1.7 | 0.00 | 0.00 | 0.00 | 43 | 1001.0 |
| 20260509210318 | 71 | 45 | 0.9 | 0.9 | 0.00 | 0.00 | 0.00 | 42 | 1001.0 |
| 20260509205747 | 72 | 68 | 0.0 | 0.0 | 0.00 | 0.00 | 0.00 | 43 | 1002.0 |
| 20260509205134 | 72 | 248 | 3.5 | 3.5 | 0.00 | 0.00 | 0.00 | 41 | 1002.0 |
| 20260509204537 | 72 | 68 | 1.7 | 1.7 | 0.00 | 0.00 | 0.00 | 43 | 1001.0 |
| 20260509203950 | 72 | 248 | 1.7 | 1.7 | 0.00 | 0.00 | 0.00 | 43 | 1001.0 |
| 20260509203321 | 72 | 158 | 0.0 | 0.0 | 0.00 | 0.00 | 0.00 | 41 | 1001.0 |
| 20260509202753 | 71 | 248 | 2.6 | 2.6 | 0.00 | 0.00 | 0.00 | 41 | 1001.0 |
| 20260509202126 | 71 | 180 | 1.7 | 1.7 | 0.00 | 0.00 | 0.00 | 41 | 1001.0 |
| 20260509201532 | 70 | 338 | 1.7 | 1.7 | 0.00 | 0.00 | 0.00 | 41 | 1001.0 |
| 20260509200939 | 70 | 248 | 3.5 | 3.5 | 0.00 | 0.00 | 0.00 | 42 | 1001.0 |
| 20260509200309 | 70 | 248 | 3.5 | 3.5 | 0.00 | 0.00 | 0.00 | 42 | 1001.0 |
| 20260509195125 | 71 | 248 | 4.3 | 4.3 | 0.00 | 0.00 | 0.00 | 41 | 1001.0 |
| 20260509193915 | 71 | 225 | 2.6 | 2.6 | 0.00 | 0.00 | 0.00 | 44 | 1001.0 |
| 20260509193337 | 71 | 248 | 2.6 | 2.6 | 0.00 | 0.00 | 0.00 | 41 | 1001.0 |
| 20260509192748 | 71 | 292 | 0.0 | 0.0 | 0.00 | 0.00 | 0.00 | 41 | 1001.0 |
| 20260509191528 | 71 | 225 | 1.7 | 1.7 | 0.00 | 0.00 | 0.00 | 42 | 1001.0 |
| 20260509190313 | 72 | 248 | 4.3 | 5.2 | 0.00 | 0.00 | 0.00 | 42 | 1001.0 |
| 20260509185750 | 72 | 248 | 1.7 | 1.7 | 0.00 | 0.00 | 0.00 | 40 | 1001.0 |
| 20260509185114 | 72 | 270 | 2.6 | 2.6 | 0.00 | 0.00 | 0.00 | 40 | 1001.0 |
| 20260509184531 | 71 | 248 | 4.3 | 5.2 | 0.00 | 0.00 | 0.00 | 39 | 1001.0 |
| 20260509183936 | 71 | 292 | 3.5 | 3.5 | 0.00 | 0.00 | 0.00 | 38 | 1001.0 |
| 20260509183343 | 71 | 225 | 2.6 | 2.6 | 0.00 | 0.00 | 0.00 | 40 | 1001.0 |
| 20260509182727 | 71 | 112 | 1.7 | 1.7 | 0.00 | 0.00 | 0.00 | 39 | 1001.0 |
| 20260509182153 | 72 | 248 | 4.3 | 5.2 | 0.00 | 0.00 | 0.00 | 39 | 1001.0 |
| 20260509181515 | 71 | 202 | 0.9 | 0.9 | 0.00 | 0.00 | 0.00 | 39 | 1001.0 |
| 20260509180942 | 71 | 202 | 1.7 | 1.7 | 0.00 | 0.00 | 0.00 | 42 | 1001.0 |
| 20260509180315 | 71 | 248 | 2.6 | 2.6 | 0.00 | 0.00 | 0.00 | 39 | 1001.0 |
| 20260509175737 | 70 | 248 | 3.5 | 3.5 | 0.00 | 0.00 | 0.00 | 41 | 1001.0 |
| 20260509175152 | 70 | 225 | 0.9 | 0.9 | 0.00 | 0.00 | 0.00 | 41 | 1001.0 |
| 20260509174526 | 70 | 248 | 4.3 | 5.2 | 0.00 | 0.00 | 0.00 | 41 | 1001.0 |
| 20260509173310 | 69 | 248 | 0.0 | 0.0 | 0.00 | 0.00 | 0.00 | 44 | 1001.0 |
| 20260509172726 | 68 | 338 | 0.0 | 0.0 | 0.00 | 0.00 | 0.00 | 46 | 1001.0 |
| 20260509171510 | 69 | 90 | 0.0 | 0.0 | 0.00 | 0.00 | 0.00 | 46 | 1001.0 |
| 20260509170921 | 69 | 315 | 0.0 | 0.0 | 0.00 | 0.00 | 0.00 | 45 | 1001.0 |
| 20260509170323 | 70 | 248 | 1.7 | 1.7 | 0.00 | 0.00 | 0.00 | 44 | 1001.0 |
| 20260509165719 | 70 | 248 | 1.7 | 1.7 | 0.00 | 0.00 | 0.00 | 44 | 1002.0 |
| 20260509165132 | 70 | 248 | 1.7 | 1.7 | 0.00 | 0.00 | 0.00 | 45 | 1002.0 |